Portada
METAR-TAF:

METAR-TAF

Aeroports :

Johor Bahru, Malàisia

latitud: 01-38N, longitud: 103-40E, altitud: 37 m

Observació

L'informe es va fer fa 58 minuts, a les 11:00 UTC
Vent 2 kt amb direcció variable
Temperatura 29°C
Humitat 84%
Pressió 1008 hPa
Visibilitat 10 km o més
Escasses núvols a una alçada de 1800 ft

METAR: WMKJ 241100Z VRB02KT 9999 FEW018 29/26 Q1008

Hora: 19:58 (11:58 UTC)

Pronòstic

L'informe es va fer fa 58 minuts, a les 11:00 UTC
Pronòstic vàlid del 24 a les 12 UTC al 25 a les 12 UTC
Vent 3 kt amb direcció variable
Visibilitat 10 km o més
Escasses núvols a una alçada de 2200 ft
Temporalment
l' 24 a les 20 UTC al 25 a les 00 UTC
Vent 6 kt del Oest
Visibilitat: 5000 m
Escasses núvols a una alçada de 1000 ft
Escasses núvols a una alçada de 1600 ft, Cumulonimbus.
Núvols disperses a una alçada de 2000 ft
tempesta, pluja

TAF: WMKJ 241100Z 2412/2512 VRB03KT 9999 FEW022 TEMPO 2420/2500 27006KT 5000 TSRA FEW010 FEW016CB SCT020

Observacions i pronòstics meteorològics de més de 4000 aeroports (METAR i TAF).

Les estacions disponibles són els punts grocs i vermells al mapa.

Posi el ratolí al punt desitjat per veure el nom de l'estació.

Feu clic per veure les observacions i els pronòstics meteorològics.

Per canviar el mapa: feu clic els botons verds amb una creu de color negre per apropar; al botó verd amb un guió per allunyar la imatge; o en les fletxes verdes per a mapes adjacents.


METAR-TAF: